createdAt,value
2023-10-07T00:01:26.556Z,102190.63
2023-10-07T00:03:54.583Z,102183.97
2023-10-07T00:06:29.291Z,102180.44
2023-10-07T00:08:59.427Z,102174.56
2023-10-07T00:11:28.565Z,102175.34
2023-10-07T00:13:56.496Z,102171.81
2023-10-07T00:16:25.274Z,102177.72
2023-10-07T00:18:52.586Z,102188.25
2023-10-07T00:21:28.181Z,102194.53
2023-10-07T00:23:55.452Z,102187.84
2023-10-07T00:26:22.059Z,102192.16
2023-10-07T00:29:00.974Z,102193.72
2023-10-07T00:31:29.326Z,102193.75
2023-10-07T00:34:07.035Z,102186.72
2023-10-07T00:36:33.681Z,102174.16
2023-10-07T00:39:01.287Z,102169.03
2023-10-07T00:41:37.713Z,102177.25
2023-10-07T00:44:19.182Z,102171.00
2023-10-07T00:46:56.774Z,102172.19
2023-10-07T00:49:24.332Z,102171.78
2023-10-07T00:51:53.500Z,102179.22
2023-10-07T00:54:26.593Z,102175.69
2023-10-07T00:57:08.085Z,102168.25
2023-10-07T00:59:36.193Z,102162.00
2023-10-07T01:02:07.871Z,102163.97
2023-10-07T01:04:41.924Z,102167.84
2023-10-07T01:07:14.114Z,102179.22
2023-10-07T01:09:41.149Z,102170.94
2023-10-07T01:12:09.738Z,102166.66
2023-10-07T01:14:36.811Z,102168.59
2023-10-07T01:17:04.595Z,102163.09
2023-10-07T01:19:37.130Z,102164.66
2023-10-07T01:22:11.228Z,102159.53
2023-10-07T01:24:38.221Z,102168.97
2023-10-07T01:27:19.857Z,102168.97
2023-10-07T01:30:01.236Z,102173.28
2023-10-07T01:32:33.783Z,102167.81
2023-10-07T01:35:07.737Z,102167.81
2023-10-07T01:37:43.531Z,102162.31
2023-10-07T01:40:17.733Z,102164.28
2023-10-07T01:42:45.130Z,102169.75
2023-10-07T01:45:21.120Z,102153.69
2023-10-07T01:47:49.759Z,102158.03
2023-10-07T01:50:19.801Z,102164.69
2023-10-07T01:52:49.839Z,102151.41
2023-10-07T01:55:17.679Z,102156.88
2023-10-07T01:57:46.143Z,102145.91
2023-10-07T02:00:13.944Z,102153.72
2023-10-07T02:02:50.244Z,102162.38
2023-10-07T02:05:22.389Z,102158.47
2023-10-07T02:07:50.330Z,102155.75
2023-10-07T02:10:24.650Z,102151.06
2023-10-07T02:12:54.310Z,102142.84
2023-10-07T02:15:21.899Z,102153.41
2023-10-07T02:17:49.162Z,102148.69
2023-10-07T02:20:39.686Z,102141.28
2023-10-07T02:23:14.475Z,102142.47
2023-10-07T02:25:41.875Z,102147.97
2023-10-07T02:28:09.558Z,102138.94
2023-10-07T02:30:40.354Z,102150.31
2023-10-07T02:33:09.518Z,102146.38
2023-10-07T02:35:38.155Z,102148.38
2023-10-07T02:38:05.076Z,102144.03
2023-10-07T02:40:37.196Z,102135.44
2023-10-07T02:43:08.605Z,102144.44
2023-10-07T02:45:44.221Z,102135.44
2023-10-07T02:48:12.415Z,102141.69
2023-10-07T02:50:41.898Z,102131.50
2023-10-07T02:53:15.556Z,102138.22
2023-10-07T02:55:56.226Z,102136.63
2023-10-07T02:58:41.477Z,102139.78
2023-10-07T03:01:15.289Z,102140.97
2023-10-07T03:03:49.391Z,102146.44
2023-10-07T03:06:18.839Z,102140.97
2023-10-07T03:08:47.066Z,102139.00
2023-10-07T03:11:22.243Z,102143.28
2023-10-07T03:13:51.574Z,102142.50
2023-10-07T03:16:25.621Z,102135.47
2023-10-07T03:19:02.506Z,102135.88
2023-10-07T03:21:45.112Z,102132.72
2023-10-07T03:24:13.695Z,102122.94
2023-10-07T03:26:42.695Z,102124.50
2023-10-07T03:29:09.671Z,102127.66
2023-10-07T03:31:48.862Z,102130.41
2023-10-07T03:34:15.741Z,102133.13
2023-10-07T03:36:46.348Z,102131.94
2023-10-07T03:39:16.212Z,102131.16
2023-10-07T03:41:42.821Z,102128.03
2023-10-07T03:44:09.914Z,102128.03
2023-10-07T03:46:37.050Z,102126.09
2023-10-07T03:49:07.830Z,102124.94
2023-10-07T03:51:36.391Z,102121.38
2023-10-07T03:54:05.251Z,102118.31
2023-10-07T03:56:32.622Z,102119.50
2023-10-07T03:59:01.230Z,102121.06
2023-10-07T04:01:28.474Z,102112.81
2023-10-07T04:04:00.560Z,102133.19
2023-10-07T04:06:35.725Z,102127.72
2023-10-07T04:09:08.781Z,102133.19
2023-10-07T04:11:37.994Z,102131.25
2023-10-07T04:14:28.602Z,102123.00
2023-10-07T04:17:01.336Z,102135.53
2023-10-07T04:19:28.445Z,102135.94
2023-10-07T04:21:56.154Z,102127.72
2023-10-07T04:24:30.101Z,102123.78
2023-10-07T04:27:04.037Z,102116.75
2023-10-07T04:29:32.509Z,102128.50
2023-10-07T04:32:07.132Z,102123.00
2023-10-07T04:34:37.731Z,102123.38
2023-10-07T04:37:04.344Z,102124.19
2023-10-07T04:39:39.049Z,102121.81
2023-10-07T04:42:07.339Z,102124.56
2023-10-07T04:44:40.739Z,102135.16
2023-10-07T04:47:23.858Z,102135.94
2023-10-07T04:49:56.945Z,102123.38
2023-10-07T04:52:28.460Z,102126.94
2023-10-07T04:54:57.774Z,102125.34
2023-10-07T04:57:45.357Z,102131.25
2023-10-07T05:00:32.100Z,102117.16
2023-10-07T05:03:09.315Z,102109.72
2023-10-07T05:05:36.076Z,102106.59
2023-10-07T05:08:18.780Z,102101.09
2023-10-07T05:10:53.629Z,102110.09
2023-10-07T05:13:20.976Z,102105.78
2023-10-07T05:15:47.698Z,102101.47
2023-10-07T05:18:18.376Z,102105.41
2023-10-07T05:20:48.076Z,102097.56
2023-10-07T05:23:16.251Z,102102.25
2023-10-07T05:25:51.163Z,102096.00
2023-10-07T05:28:28.397Z,102105.38
2023-10-07T05:30:55.320Z,102108.94
2023-10-07T05:33:29.693Z,102117.94
2023-10-07T05:36:00.345Z,102118.31
2023-10-07T05:38:26.966Z,102121.06
2023-10-07T05:40:53.528Z,102115.16
2023-10-07T05:43:20.121Z,102127.72
2023-10-07T05:45:46.722Z,102125.38
2023-10-07T05:48:13.389Z,102131.28
2023-10-07T05:50:40.984Z,102119.50
2023-10-07T05:53:07.668Z,102120.31
2023-10-07T05:55:35.537Z,102117.16
2023-10-07T05:58:03.390Z,102121.47
2023-10-07T06:00:37.390Z,102122.25
2023-10-07T06:03:07.958Z,102127.38
2023-10-07T06:05:36.787Z,102133.25
2023-10-07T06:08:05.930Z,102142.28
2023-10-07T06:10:34.816Z,102135.22
2023-10-07T06:13:09.378Z,102142.69
2023-10-07T06:15:38.905Z,102133.28
2023-10-07T06:18:06.624Z,102117.25
2023-10-07T06:20:40.214Z,102132.13
2023-10-07T06:23:15.178Z,102135.28
2023-10-07T06:25:44.632Z,102132.53
2023-10-07T06:28:11.459Z,102126.66
2023-10-07T06:30:39.363Z,102132.16
2023-10-07T06:33:06.311Z,102141.19
2023-10-07T06:35:34.977Z,102143.16
2023-10-07T06:38:04.165Z,102145.94
2023-10-07T06:40:30.825Z,102137.69
2023-10-07T06:43:00.091Z,102134.56
2023-10-07T06:45:36.749Z,102146.38
2023-10-07T06:48:08.880Z,102147.53
2023-10-07T06:50:36.380Z,102144.81
2023-10-07T06:53:04.049Z,102144.81
2023-10-07T06:55:37.934Z,102142.47
2023-10-07T06:58:05.883Z,102147.56
2023-10-07T07:00:48.415Z,102148.38
2023-10-07T07:03:19.304Z,102152.28
2023-10-07T07:05:46.863Z,102144.84
2023-10-07T07:08:14.283Z,102148.75
2023-10-07T07:10:41.854Z,102143.69
2023-10-07T07:13:16.564Z,102144.06
2023-10-07T07:15:43.268Z,102161.72
2023-10-07T07:18:16.185Z,102156.63
2023-10-07T07:20:51.341Z,102152.34
2023-10-07T07:23:18.295Z,102154.31
2023-10-07T07:25:50.725Z,102150.00
2023-10-07T07:28:18.491Z,102170.00
2023-10-07T07:30:46.387Z,102172.38
2023-10-07T07:33:13.660Z,102176.28
2023-10-07T07:35:42.594Z,102179.03
2023-10-07T07:38:33.667Z,102179.03
2023-10-07T07:41:11.139Z,102175.53
2023-10-07T07:43:39.938Z,102177.06
2023-10-07T07:46:19.674Z,102184.53
2023-10-07T07:48:46.940Z,102179.47
2023-10-07T07:51:18.021Z,102177.88
2023-10-07T07:53:45.642Z,102182.19
2023-10-07T07:56:18.312Z,102179.06
2023-10-07T07:58:48.497Z,102178.31
2023-10-07T08:01:19.305Z,102184.59
2023-10-07T08:03:46.196Z,102166.97
2023-10-07T08:06:13.510Z,102172.44
2023-10-07T08:08:40.493Z,102167.34
2023-10-07T08:11:08.664Z,102154.41
2023-10-07T08:13:35.470Z,102167.38
2023-10-07T08:16:06.755Z,102150.88
2023-10-07T08:18:33.489Z,102152.84
2023-10-07T08:21:15.207Z,102151.69
2023-10-07T08:23:42.890Z,102149.31
2023-10-07T08:26:10.996Z,102164.63
2023-10-07T08:28:42.686Z,102157.56
2023-10-07T08:31:20.931Z,102155.59
2023-10-07T08:34:05.698Z,102165.41
2023-10-07T08:36:32.224Z,102171.69
2023-10-07T08:39:00.328Z,102175.25
2023-10-07T08:41:28.309Z,102176.81
2023-10-07T08:44:05.918Z,102175.63
2023-10-07T08:46:40.604Z,102176.41
2023-10-07T08:49:15.930Z,102184.66
2023-10-07T08:51:44.174Z,102177.56
2023-10-07T08:54:18.700Z,102176.00
2023-10-07T08:56:56.062Z,102171.28
2023-10-07T08:59:24.033Z,102172.47
2023-10-07T09:01:58.801Z,102172.47
2023-10-07T09:04:26.875Z,102172.09
2023-10-07T09:06:53.543Z,102156.75
2023-10-07T09:09:38.985Z,102164.59
2023-10-07T09:12:16.724Z,102161.84
2023-10-07T09:14:53.651Z,102168.13
2023-10-07T09:17:22.593Z,102179.53
2023-10-07T09:19:50.083Z,102182.25
2023-10-07T09:22:19.450Z,102170.84
2023-10-07T09:24:46.096Z,102174.38
2023-10-07T09:27:14.466Z,102182.69
2023-10-07T09:29:45.533Z,102184.22
2023-10-07T09:32:23.622Z,102186.19
2023-10-07T09:34:56.379Z,102184.19
2023-10-07T09:37:24.957Z,102187.31
2023-10-07T09:40:17.884Z,102186.53
2023-10-07T09:42:58.340Z,102195.59
2023-10-07T09:45:35.227Z,102189.66
2023-10-07T09:48:06.686Z,102205.38
2023-10-07T09:50:35.610Z,102204.16
2023-10-07T09:53:19.522Z,102195.09
2023-10-07T09:56:01.613Z,102203.69
2023-10-07T09:58:42.980Z,102196.97
2023-10-07T10:01:38.180Z,102197.72
2023-10-07T10:04:14.191Z,102200.47
2023-10-07T10:06:52.137Z,102196.13
2023-10-07T10:09:25.657Z,102186.66
2023-10-07T10:12:14.601Z,102179.56
2023-10-07T10:14:58.036Z,102174.81
2023-10-07T10:17:40.546Z,102181.13
2023-10-07T10:20:13.770Z,102176.38
2023-10-07T10:22:51.648Z,102174.78
2023-10-07T10:25:37.968Z,102181.06
2023-10-07T10:28:07.790Z,102175.91
2023-10-07T10:30:46.655Z,102178.63
2023-10-07T10:33:21.148Z,102167.97
2023-10-07T10:35:53.366Z,102193.19
2023-10-07T10:38:20.649Z,102185.75
2023-10-07T10:40:48.050Z,102205.84
2023-10-07T10:43:25.242Z,102199.53
2023-10-07T10:46:06.161Z,102206.97
2023-10-07T10:48:35.608Z,102204.19
2023-10-07T10:51:08.595Z,102210.09
2023-10-07T10:53:42.034Z,102208.06
2023-10-07T10:56:09.576Z,102206.44
2023-10-07T10:58:38.137Z,102204.91
2023-10-07T11:01:06.785Z,102210.03
2023-10-07T11:03:35.003Z,102219.06
2023-10-07T11:06:07.358Z,102229.66
2023-10-07T11:08:34.706Z,102223.75
2023-10-07T11:11:01.868Z,102228.88
2023-10-07T11:13:30.991Z,102233.19
2023-10-07T11:16:06.313Z,102221.72
2023-10-07T11:18:34.983Z,102234.28
2023-10-07T11:21:03.516Z,102235.47
2023-10-07T11:23:30.090Z,102233.88
2023-10-07T11:25:57.103Z,102231.47
2023-10-07T11:28:23.961Z,102217.19
2023-10-07T11:30:52.599Z,102217.50
2023-10-07T11:33:20.916Z,102214.69
2023-10-07T11:36:01.171Z,102214.59
2023-10-07T11:38:27.961Z,102216.56
2023-10-07T11:40:54.820Z,102211.03
2023-10-07T11:43:21.758Z,102216.25
2023-10-07T11:45:49.182Z,102211.56
2023-10-07T11:48:15.828Z,102215.50
2023-10-07T11:50:42.595Z,102208.81
2023-10-07T11:53:09.212Z,102219.88
2023-10-07T11:55:36.994Z,102208.06
2023-10-07T11:58:05.141Z,102214.34
2023-10-07T12:00:35.744Z,102219.41
2023-10-07T12:03:08.180Z,102210.69
2023-10-07T12:05:39.509Z,102220.09
2023-10-07T12:08:06.334Z,102218.50
2023-10-07T12:10:36.247Z,102226.75
2023-10-07T12:13:04.343Z,102220.84
2023-10-07T12:15:31.751Z,102217.66
2023-10-07T12:17:58.464Z,102228.31
2023-10-07T12:20:25.227Z,102227.50
2023-10-07T12:22:51.967Z,102218.84
2023-10-07T12:25:19.825Z,102209.38
2023-10-07T12:27:48.514Z,102204.69
2023-10-07T12:30:22.132Z,102190.50
2023-10-07T12:32:49.747Z,102201.16
2023-10-07T12:35:16.831Z,102194.41
2023-10-07T12:37:48.081Z,102182.53
2023-10-07T12:40:15.785Z,102186.44
2023-10-07T12:42:42.876Z,102178.13
2023-10-07T12:45:11.838Z,102161.97
2023-10-07T12:47:42.109Z,102153.69
2023-10-07T12:50:24.351Z,102166.69
2023-10-07T12:52:52.669Z,102204.50
2023-10-07T12:55:19.798Z,102220.66
2023-10-07T12:57:46.682Z,102200.50
2023-10-07T13:00:21.195Z,102191.06
2023-10-07T13:02:49.172Z,102184.09
2023-10-07T13:05:19.477Z,102190.19
2023-10-07T13:07:48.452Z,102176.59
2023-10-07T13:10:15.701Z,102185.72
2023-10-07T13:12:42.771Z,102203.03
2023-10-07T13:15:16.729Z,102204.59
2023-10-07T13:17:46.748Z,102198.31
2023-10-07T13:20:21.466Z,102203.41
2023-10-07T13:22:49.987Z,102236.47
2023-10-07T13:25:18.253Z,102231.72
2023-10-07T13:27:45.114Z,102200.63
2023-10-07T13:30:13.314Z,102187.69
2023-10-07T13:32:41.541Z,102194.78
2023-10-07T13:35:10.493Z,102202.25
2023-10-07T13:37:40.444Z,102201.47
2023-10-07T13:40:08.980Z,102198.72
2023-10-07T13:42:36.734Z,102193.56
2023-10-07T13:45:09.511Z,102178.66
2023-10-07T13:47:37.806Z,102171.16
2023-10-07T13:50:12.216Z,102188.47
2023-10-07T13:52:47.122Z,102199.88
2023-10-07T13:55:23.268Z,102187.66
2023-10-07T13:57:57.350Z,102192.38
2023-10-07T14:00:37.932Z,102181.38
2023-10-07T14:03:07.132Z,102188.47
2023-10-07T14:05:42.294Z,102197.88
2023-10-07T14:08:17.349Z,102212.81
2023-10-07T14:10:45.286Z,102205.72
2023-10-07T14:13:13.126Z,102190.78
2023-10-07T14:15:40.849Z,102183.69
2023-10-07T14:18:07.765Z,102183.31
2023-10-07T14:20:34.619Z,102188.00
2023-10-07T14:23:01.292Z,102190.34
2023-10-07T14:25:28.282Z,102169.50
2023-10-07T14:27:54.910Z,102165.53
2023-10-07T14:30:23.713Z,102137.22
2023-10-07T14:32:51.376Z,102121.06
2023-10-07T14:35:18.475Z,102124.22
2023-10-07T14:37:46.640Z,102126.97
2023-10-07T14:40:19.073Z,102115.53
2023-10-07T14:42:47.258Z,102134.41
2023-10-07T14:45:13.889Z,102138.38
2023-10-07T14:47:40.649Z,102134.41
2023-10-07T14:50:07.843Z,102134.41
2023-10-07T14:52:35.370Z,102126.16
2023-10-07T14:55:07.046Z,102135.19
2023-10-07T14:57:34.122Z,102138.72
2023-10-07T15:00:00.848Z,102131.28
2023-10-07T15:02:28.430Z,102134.81
2023-10-07T15:04:55.173Z,102141.09
2023-10-07T15:07:21.935Z,102145.78
2023-10-07T15:09:49.880Z,102164.28
2023-10-07T15:12:17.300Z,102168.59
2023-10-07T15:14:44.349Z,102168.97
2023-10-07T15:17:10.892Z,102175.66
2023-10-07T15:19:37.826Z,102168.97
2023-10-07T15:22:07.054Z,102174.09
2023-10-07T15:24:35.449Z,102167.34
2023-10-07T15:27:02.882Z,102185.03
2023-10-07T15:29:31.818Z,102201.56
2023-10-07T15:31:59.517Z,102209.84
2023-10-07T15:34:26.080Z,102216.91
2023-10-07T15:36:57.472Z,102216.91
2023-10-07T15:39:25.305Z,102219.66
2023-10-07T15:41:53.120Z,102208.63
2023-10-07T15:44:20.500Z,102196.84
2023-10-07T15:46:47.326Z,102212.59
2023-10-07T15:49:14.713Z,102213.78
2023-10-07T15:51:45.832Z,102216.94
2023-10-07T15:54:16.433Z,102203.53
2023-10-07T15:56:43.462Z,102210.25
2023-10-07T15:59:11.600Z,102212.63
2023-10-07T16:01:41.883Z,102208.69
2023-10-07T16:04:09.612Z,102201.25
2023-10-07T16:06:37.269Z,102217.38
2023-10-07T16:09:13.964Z,102207.53
2023-10-07T16:11:41.925Z,102202.44
2023-10-07T16:14:09.489Z,102202.84
2023-10-07T16:16:37.032Z,102198.94
2023-10-07T16:19:05.201Z,102189.84
2023-10-07T16:21:32.255Z,102176.50
2023-10-07T16:23:58.736Z,102174.97
2023-10-07T16:26:25.395Z,102176.16
2023-10-07T16:28:52.013Z,102162.78
2023-10-07T16:31:19.683Z,102157.66
2023-10-07T16:33:46.271Z,102148.63
2023-10-07T16:36:13.777Z,102154.53
2023-10-07T16:38:42.234Z,102161.63
2023-10-07T16:41:12.930Z,102178.56
2023-10-07T16:43:39.628Z,102178.19
2023-10-07T16:46:06.712Z,102186.06
2023-10-07T16:48:35.412Z,102183.69
2023-10-07T16:51:05.640Z,102189.19
2023-10-07T16:53:35.601Z,102180.16
2023-10-07T16:56:04.290Z,102178.19
2023-10-07T16:58:32.126Z,102182.13
2023-10-07T17:00:59.905Z,102177.81
2023-10-07T17:03:28.982Z,102183.31
2023-10-07T17:06:01.631Z,102184.09
2023-10-07T17:08:30.662Z,102171.13
2023-10-07T17:10:58.628Z,102182.91
2023-10-07T17:13:25.799Z,102198.25
2023-10-07T17:15:54.161Z,102224.59
2023-10-07T17:18:27.414Z,102225.78
2023-10-07T17:20:59.052Z,102227.75
2023-10-07T17:23:29.052Z,102220.66
2023-10-07T17:25:56.361Z,102207.66
2023-10-07T17:28:23.704Z,102210.41
2023-10-07T17:30:51.241Z,102202.56
2023-10-07T17:33:21.787Z,102186.06
2023-10-07T17:35:49.411Z,102186.06
2023-10-07T17:38:16.280Z,102176.63
2023-10-07T17:40:42.974Z,102186.44
2023-10-07T17:43:12.240Z,102180.16
2023-10-07T17:45:40.750Z,102178.97
2023-10-07T17:48:08.027Z,102180.16
2023-10-07T17:50:35.564Z,102173.06
2023-10-07T17:53:04.183Z,102182.53
2023-10-07T17:55:32.518Z,102182.91
2023-10-07T17:57:59.727Z,102191.56
2023-10-07T18:00:31.470Z,102181.75
2023-10-07T18:03:00.582Z,102213.22
2023-10-07T18:05:28.158Z,102215.56
2023-10-07T18:07:55.394Z,102202.59
2023-10-07T18:10:23.891Z,102202.59
2023-10-07T18:12:52.255Z,102210.44
2023-10-07T18:15:19.466Z,102205.34
2023-10-07T18:17:47.469Z,102208.09
2023-10-07T18:20:14.561Z,102211.63
2023-10-07T18:22:43.874Z,102218.72
2023-10-07T18:25:11.365Z,102229.72
2023-10-07T18:27:38.779Z,102226.56
2023-10-07T18:30:07.816Z,102219.88
2023-10-07T18:32:35.085Z,102212.81
2023-10-07T18:35:05.775Z,102209.69
2023-10-07T18:37:33.717Z,102211.63
2023-10-07T18:40:02.030Z,102203.75
2023-10-07T18:42:36.548Z,102187.22
2023-10-07T18:45:05.635Z,102187.22
2023-10-07T18:47:34.630Z,102199.44
2023-10-07T18:50:01.500Z,102190.41
2023-10-07T18:52:29.464Z,102200.59
2023-10-07T18:54:56.799Z,102182.13
2023-10-07T18:57:23.328Z,102186.84
2023-10-07T18:59:49.875Z,102203.78
2023-10-07T19:02:16.502Z,102201.81
2023-10-07T19:04:43.409Z,102216.34
2023-10-07T19:07:10.580Z,102237.22
2023-10-07T19:09:38.122Z,102233.66
2023-10-07T19:12:06.248Z,102240.34
2023-10-07T19:14:34.324Z,102253.72
2023-10-07T19:17:01.620Z,102261.22
2023-10-07T19:19:28.503Z,102244.28
2023-10-07T19:21:55.395Z,102260.78
2023-10-07T19:24:24.384Z,102273.78
2023-10-07T19:26:51.760Z,102282.03
2023-10-07T19:29:18.532Z,102270.25
2023-10-07T19:31:45.206Z,102262.78
2023-10-07T19:34:11.830Z,102268.28
2023-10-07T19:36:38.709Z,102269.47
2023-10-07T19:39:05.354Z,102256.47
2023-10-07T19:41:31.976Z,102257.25
2023-10-07T19:43:58.552Z,102245.09
2023-10-07T19:46:25.352Z,102242.31
2023-10-07T19:48:51.994Z,102264.34
2023-10-07T19:51:18.597Z,102271.81
2023-10-07T19:53:45.281Z,102269.06
2023-10-07T19:56:12.247Z,102269.47
2023-10-07T19:58:40.135Z,102271.41
2023-10-07T20:01:08.608Z,102276.91
2023-10-07T20:03:36.437Z,102273.00
2023-10-07T20:06:08.029Z,102252.53
2023-10-07T20:08:34.760Z,102251.38
2023-10-07T20:11:01.706Z,102247.84
2023-10-07T20:13:28.419Z,102248.63
2023-10-07T20:15:55.012Z,102247.84
2023-10-07T20:18:21.597Z,102263.97
2023-10-07T20:20:59.850Z,102271.41
2023-10-07T20:23:26.844Z,102269.09
2023-10-07T20:26:01.757Z,102276.16
2023-10-07T20:28:28.475Z,102274.59
2023-10-07T20:30:56.049Z,102267.50
2023-10-07T20:33:22.765Z,102268.31
2023-10-07T20:35:49.581Z,102263.19
2023-10-07T20:38:16.355Z,102265.16
2023-10-07T20:41:01.941Z,102267.91
2023-10-07T20:43:30.361Z,102276.56
2023-10-07T20:46:04.307Z,102263.56
2023-10-07T20:48:33.126Z,102277.34
2023-10-07T20:51:02.889Z,102284.81
2023-10-07T20:53:30.530Z,102270.25
2023-10-07T20:55:57.053Z,102269.47
2023-10-07T20:58:24.767Z,102282.47
2023-10-07T21:00:51.928Z,102291.88
2023-10-07T21:03:18.912Z,102296.63
2023-10-07T21:05:45.708Z,102288.78
2023-10-07T21:08:13.314Z,102279.31
2023-10-07T21:10:42.402Z,102295.06
2023-10-07T21:13:08.960Z,102288.78
2023-10-07T21:15:36.698Z,102295.84
2023-10-07T21:18:05.622Z,102286.78
2023-10-07T21:20:35.437Z,102288.78
2023-10-07T21:23:03.362Z,102297.81
2023-10-07T21:25:37.972Z,102298.59
2023-10-07T21:28:05.019Z,102281.28
2023-10-07T21:30:31.607Z,102283.25
2023-10-07T21:32:58.251Z,102266.75
2023-10-07T21:35:26.554Z,102300.94
2023-10-07T21:37:55.064Z,102292.31
2023-10-07T21:40:21.613Z,102303.69
2023-10-07T21:42:48.544Z,102296.22
2023-10-07T21:45:15.220Z,102300.94
2023-10-07T21:47:41.917Z,102290.31
2023-10-07T21:50:09.150Z,102290.31
2023-10-07T21:52:35.733Z,102298.19
2023-10-07T21:55:02.520Z,102287.97
2023-10-07T21:57:29.546Z,102296.63
2023-10-07T21:59:57.950Z,102300.59
2023-10-07T22:02:27.001Z,102300.59
2023-10-07T22:04:55.014Z,102301.34
2023-10-07T22:07:22.723Z,102305.28
2023-10-07T22:09:49.337Z,102320.22
2023-10-07T22:12:17.737Z,102323.00
2023-10-07T22:14:45.247Z,102302.94
2023-10-07T22:17:13.054Z,102314.72
2023-10-07T22:19:40.293Z,102320.22
2023-10-07T22:22:06.916Z,102310.38
2023-10-07T22:24:33.476Z,102312.34
2023-10-07T22:27:00.105Z,102319.44
2023-10-07T22:29:26.661Z,102320.22
2023-10-07T22:31:56.127Z,102324.94
2023-10-07T22:34:23.457Z,102328.47
2023-10-07T22:36:56.124Z,102331.22
2023-10-07T22:39:32.224Z,102325.72
2023-10-07T22:41:59.977Z,102326.50
2023-10-07T22:44:27.021Z,102326.53
2023-10-07T22:46:57.472Z,102323.00
2023-10-07T22:49:27.836Z,102329.66
2023-10-07T22:51:55.535Z,102332.03
2023-10-07T22:54:33.290Z,102335.19
2023-10-07T22:57:00.815Z,102326.53
2023-10-07T22:59:27.635Z,102331.25
2023-10-07T23:01:57.463Z,102339.50
2023-10-07T23:04:28.033Z,102340.69
2023-10-07T23:07:04.086Z,102344.63
2023-10-07T23:09:38.460Z,102335.56
2023-10-07T23:12:16.899Z,102340.28
2023-10-07T23:14:46.250Z,102354.03
2023-10-07T23:17:13.515Z,102337.94
2023-10-07T23:19:41.329Z,102337.13
2023-10-07T23:22:14.774Z,102338.34
2023-10-07T23:24:42.358Z,102363.88
2023-10-07T23:27:13.031Z,102364.25
2023-10-07T23:29:50.679Z,102364.25
2023-10-07T23:32:24.103Z,102379.22
2023-10-07T23:35:00.852Z,102372.13
2023-10-07T23:37:27.916Z,102368.22
2023-10-07T23:40:00.547Z,102359.16
2023-10-07T23:42:27.675Z,102362.72
2023-10-07T23:44:55.871Z,102374.50
2023-10-07T23:47:24.423Z,102381.97
2023-10-07T23:49:55.806Z,102385.50
2023-10-07T23:52:24.588Z,102391.78
2023-10-07T23:54:58.496Z,102386.28
2023-10-07T23:57:31.662Z,102376.84
2023-10-07T23:59:59.018Z,102370.94
